sensor_id;sensor_type;location;lat;lon;timestamp;P1;durP1;ratioP1;P2;durP2;ratioP2
3261;SDS011;1643;47.746;9.000;2023-12-22T00:01:24;0.87;;;0.87;;
3261;SDS011;1643;47.746;9.000;2023-12-22T00:03:50;0.80;;;0.80;;
3261;SDS011;1643;47.746;9.000;2023-12-22T00:06:16;0.73;;;0.73;;
3261;SDS011;1643;47.746;9.000;2023-12-22T00:08:41;1.20;;;0.80;;
3261;SDS011;1643;47.746;9.000;2023-12-22T00:11:07;1.17;;;1.07;;
3261;SDS011;1643;47.746;9.000;2023-12-22T00:13:33;1.77;;;0.87;;
3261;SDS011;1643;47.746;9.000;2023-12-22T00:15:59;1.93;;;1.00;;
3261;SDS011;1643;47.746;9.000;2023-12-22T00:18:27;1.87;;;1.10;;
3261;SDS011;1643;47.746;9.000;2023-12-22T00:20:53;1.10;;;0.90;;
3261;SDS011;1643;47.746;9.000;2023-12-22T00:23:19;1.97;;;0.90;;
3261;SDS011;1643;47.746;9.000;2023-12-22T00:25:44;2.60;;;1.20;;
3261;SDS011;1643;47.746;9.000;2023-12-22T00:28:10;1.13;;;1.03;;
3261;SDS011;1643;47.746;9.000;2023-12-22T00:30:35;2.30;;;1.13;;
3261;SDS011;1643;47.746;9.000;2023-12-22T00:33:01;3.17;;;1.00;;
3261;SDS011;1643;47.746;9.000;2023-12-22T00:35:27;0.93;;;0.93;;
3261;SDS011;1643;47.746;9.000;2023-12-22T00:37:53;1.47;;;1.00;;
3261;SDS011;1643;47.746;9.000;2023-12-22T00:40:18;0.80;;;0.80;;
3261;SDS011;1643;47.746;9.000;2023-12-22T00:42:44;0.97;;;0.80;;
3261;SDS011;1643;47.746;9.000;2023-12-22T00:45:10;2.20;;;0.80;;
3261;SDS011;1643;47.746;9.000;2023-12-22T00:47:36;3.43;;;0.90;;
3261;SDS011;1643;47.746;9.000;2023-12-22T00:50:02;1.00;;;1.00;;
3261;SDS011;1643;47.746;9.000;2023-12-22T00:52:35;0.80;;;0.80;;
3261;SDS011;1643;47.746;9.000;2023-12-22T00:55:01;1.53;;;0.93;;
3261;SDS011;1643;47.746;9.000;2023-12-22T00:57:27;2.30;;;1.00;;
3261;SDS011;1643;47.746;9.000;2023-12-22T00:59:52;3.20;;;0.80;;
3261;SDS011;1643;47.746;9.000;2023-12-22T01:02:18;2.17;;;0.90;;
3261;SDS011;1643;47.746;9.000;2023-12-22T01:04:45;2.70;;;0.80;;
3261;SDS011;1643;47.746;9.000;2023-12-22T01:07:11;0.70;;;0.63;;
3261;SDS011;1643;47.746;9.000;2023-12-22T01:09:36;1.00;;;0.80;;
3261;SDS011;1643;47.746;9.000;2023-12-22T01:12:05;1.27;;;1.07;;
3261;SDS011;1643;47.746;9.000;2023-12-22T01:14:32;0.70;;;0.70;;
3261;SDS011;1643;47.746;9.000;2023-12-22T01:16:58;1.13;;;0.90;;
3261;SDS011;1643;47.746;9.000;2023-12-22T01:19:25;1.30;;;0.87;;
3261;SDS011;1643;47.746;9.000;2023-12-22T01:21:51;1.17;;;0.90;;
3261;SDS011;1643;47.746;9.000;2023-12-22T01:24:17;0.80;;;0.80;;
3261;SDS011;1643;47.746;9.000;2023-12-22T01:26:42;1.27;;;0.97;;
3261;SDS011;1643;47.746;9.000;2023-12-22T01:29:08;0.70;;;0.70;;
3261;SDS011;1643;47.746;9.000;2023-12-22T01:31:34;0.73;;;0.73;;
3261;SDS011;1643;47.746;9.000;2023-12-22T01:33:59;0.93;;;0.83;;
3261;SDS011;1643;47.746;9.000;2023-12-22T01:36:25;1.43;;;0.80;;
3261;SDS011;1643;47.746;9.000;2023-12-22T01:38:51;0.97;;;0.87;;
3261;SDS011;1643;47.746;9.000;2023-12-22T01:41:16;1.63;;;1.10;;
3261;SDS011;1643;47.746;9.000;2023-12-22T01:43:42;1.53;;;0.70;;
3261;SDS011;1643;47.746;9.000;2023-12-22T01:46:08;1.50;;;0.90;;
3261;SDS011;1643;47.746;9.000;2023-12-22T01:48:34;0.90;;;0.70;;
3261;SDS011;1643;47.746;9.000;2023-12-22T01:51:01;1.03;;;0.83;;
3261;SDS011;1643;47.746;9.000;2023-12-22T01:53:29;2.23;;;0.93;;
3261;SDS011;1643;47.746;9.000;2023-12-22T01:55:56;1.17;;;0.87;;
3261;SDS011;1643;47.746;9.000;2023-12-22T01:58:23;1.63;;;0.80;;
3261;SDS011;1643;47.746;9.000;2023-12-22T02:00:49;2.43;;;0.90;;
3261;SDS011;1643;47.746;9.000;2023-12-22T02:03:17;2.60;;;0.70;;
3261;SDS011;1643;47.746;9.000;2023-12-22T02:05:43;1.30;;;0.80;;
3261;SDS011;1643;47.746;9.000;2023-12-22T02:08:10;3.00;;;1.10;;
3261;SDS011;1643;47.746;9.000;2023-12-22T02:10:36;1.20;;;0.73;;
3261;SDS011;1643;47.746;9.000;2023-12-22T02:13:03;1.00;;;0.70;;
3261;SDS011;1643;47.746;9.000;2023-12-22T02:15:33;1.57;;;0.90;;
3261;SDS011;1643;47.746;9.000;2023-12-22T02:18:02;1.63;;;0.80;;
3261;SDS011;1643;47.746;9.000;2023-12-22T02:20:28;1.67;;;1.00;;
3261;SDS011;1643;47.746;9.000;2023-12-22T02:22:55;1.93;;;0.90;;
3261;SDS011;1643;47.746;9.000;2023-12-22T02:25:20;1.57;;;0.83;;
3261;SDS011;1643;47.746;9.000;2023-12-22T02:27:50;1.67;;;1.07;;
3261;SDS011;1643;47.746;9.000;2023-12-22T02:32:59;2.33;;;0.97;;
3261;SDS011;1643;47.746;9.000;2023-12-22T02:35:29;1.00;;;0.90;;
3261;SDS011;1643;47.746;9.000;2023-12-22T02:37:57;1.63;;;0.90;;
3261;SDS011;1643;47.746;9.000;2023-12-22T02:40:25;2.00;;;1.10;;
3261;SDS011;1643;47.746;9.000;2023-12-22T02:42:52;3.97;;;1.00;;
3261;SDS011;1643;47.746;9.000;2023-12-22T02:45:18;3.23;;;0.97;;
3261;SDS011;1643;47.746;9.000;2023-12-22T02:47:45;3.67;;;0.97;;
3261;SDS011;1643;47.746;9.000;2023-12-22T02:50:11;3.23;;;1.00;;
3261;SDS011;1643;47.746;9.000;2023-12-22T02:52:38;2.07;;;0.93;;
3261;SDS011;1643;47.746;9.000;2023-12-22T02:55:04;1.70;;;1.00;;
3261;SDS011;1643;47.746;9.000;2023-12-22T02:57:31;1.23;;;1.13;;
3261;SDS011;1643;47.746;9.000;2023-12-22T02:59:56;2.03;;;0.90;;
3261;SDS011;1643;47.746;9.000;2023-12-22T03:02:22;1.13;;;0.90;;
3261;SDS011;1643;47.746;9.000;2023-12-22T03:04:48;1.80;;;1.43;;
3261;SDS011;1643;47.746;9.000;2023-12-22T03:07:14;1.03;;;0.87;;
3261;SDS011;1643;47.746;9.000;2023-12-22T03:09:40;0.90;;;0.90;;
3261;SDS011;1643;47.746;9.000;2023-12-22T03:12:07;3.23;;;1.37;;
3261;SDS011;1643;47.746;9.000;2023-12-22T03:14:33;3.40;;;0.80;;
3261;SDS011;1643;47.746;9.000;2023-12-22T03:16:59;4.60;;;1.10;;
3261;SDS011;1643;47.746;9.000;2023-12-22T03:19:25;1.73;;;0.90;;
3261;SDS011;1643;47.746;9.000;2023-12-22T03:21:51;2.87;;;1.00;;
3261;SDS011;1643;47.746;9.000;2023-12-22T03:24:17;4.40;;;1.10;;
3261;SDS011;1643;47.746;9.000;2023-12-22T03:26:44;1.93;;;0.90;;
3261;SDS011;1643;47.746;9.000;2023-12-22T03:29:13;0.87;;;0.70;;
3261;SDS011;1643;47.746;9.000;2023-12-22T03:31:39;3.00;;;1.37;;
3261;SDS011;1643;47.746;9.000;2023-12-22T03:34:05;2.30;;;0.93;;
3261;SDS011;1643;47.746;9.000;2023-12-22T03:36:30;2.47;;;1.37;;
3261;SDS011;1643;47.746;9.000;2023-12-22T03:38:56;1.70;;;1.23;;
3261;SDS011;1643;47.746;9.000;2023-12-22T03:41:22;2.10;;;0.73;;
3261;SDS011;1643;47.746;9.000;2023-12-22T03:43:47;2.30;;;1.10;;
3261;SDS011;1643;47.746;9.000;2023-12-22T03:46:13;1.20;;;1.00;;
3261;SDS011;1643;47.746;9.000;2023-12-22T03:48:39;2.10;;;1.33;;
3261;SDS011;1643;47.746;9.000;2023-12-22T03:51:04;5.07;;;1.13;;
3261;SDS011;1643;47.746;9.000;2023-12-22T03:53:30;1.33;;;0.90;;
3261;SDS011;1643;47.746;9.000;2023-12-22T03:55:55;4.03;;;1.10;;
3261;SDS011;1643;47.746;9.000;2023-12-22T03:58:21;2.40;;;1.20;;
3261;SDS011;1643;47.746;9.000;2023-12-22T04:00:47;2.37;;;1.00;;
3261;SDS011;1643;47.746;9.000;2023-12-22T04:03:13;2.60;;;1.10;;
3261;SDS011;1643;47.746;9.000;2023-12-22T04:05:38;3.83;;;1.30;;
3261;SDS011;1643;47.746;9.000;2023-12-22T04:08:04;3.37;;;0.93;;
3261;SDS011;1643;47.746;9.000;2023-12-22T04:10:31;3.23;;;1.13;;
3261;SDS011;1643;47.746;9.000;2023-12-22T04:12:57;6.93;;;1.43;;
3261;SDS011;1643;47.746;9.000;2023-12-22T04:15:22;1.00;;;0.90;;
3261;SDS011;1643;47.746;9.000;2023-12-22T04:17:48;1.60;;;0.90;;
3261;SDS011;1643;47.746;9.000;2023-12-22T04:20:14;4.40;;;1.17;;
3261;SDS011;1643;47.746;9.000;2023-12-22T04:22:40;1.00;;;0.90;;
3261;SDS011;1643;47.746;9.000;2023-12-22T04:25:06;1.70;;;1.07;;
3261;SDS011;1643;47.746;9.000;2023-12-22T04:27:33;0.80;;;0.80;;
3261;SDS011;1643;47.746;9.000;2023-12-22T04:29:59;1.40;;;0.90;;
3261;SDS011;1643;47.746;9.000;2023-12-22T04:32:25;1.27;;;1.07;;
3261;SDS011;1643;47.746;9.000;2023-12-22T04:34:50;1.60;;;0.70;;
3261;SDS011;1643;47.746;9.000;2023-12-22T04:37:16;2.50;;;1.10;;
3261;SDS011;1643;47.746;9.000;2023-12-22T04:39:42;1.73;;;1.10;;
3261;SDS011;1643;47.746;9.000;2023-12-22T04:42:07;3.93;;;1.10;;
3261;SDS011;1643;47.746;9.000;2023-12-22T04:44:33;1.30;;;1.00;;
3261;SDS011;1643;47.746;9.000;2023-12-22T04:46:59;3.10;;;1.07;;
3261;SDS011;1643;47.746;9.000;2023-12-22T04:49:25;2.53;;;0.90;;
3261;SDS011;1643;47.746;9.000;2023-12-22T04:51:50;2.30;;;1.10;;
3261;SDS011;1643;47.746;9.000;2023-12-22T04:54:16;2.80;;;0.90;;
3261;SDS011;1643;47.746;9.000;2023-12-22T04:56:42;6.93;;;1.50;;
3261;SDS011;1643;47.746;9.000;2023-12-22T04:59:07;4.63;;;1.00;;
3261;SDS011;1643;47.746;9.000;2023-12-22T05:01:33;1.33;;;1.00;;
3261;SDS011;1643;47.746;9.000;2023-12-22T05:03:58;0.80;;;0.80;;
3261;SDS011;1643;47.746;9.000;2023-12-22T05:06:24;1.20;;;0.87;;
3261;SDS011;1643;47.746;9.000;2023-12-22T05:08:50;0.97;;;0.87;;
3261;SDS011;1643;47.746;9.000;2023-12-22T05:11:15;1.83;;;0.87;;
3261;SDS011;1643;47.746;9.000;2023-12-22T05:13:41;1.10;;;0.90;;
3261;SDS011;1643;47.746;9.000;2023-12-22T05:16:08;2.60;;;1.00;;
3261;SDS011;1643;47.746;9.000;2023-12-22T05:18:33;2.57;;;0.80;;
3261;SDS011;1643;47.746;9.000;2023-12-22T05:20:59;1.57;;;0.97;;
3261;SDS011;1643;47.746;9.000;2023-12-22T05:23:25;0.90;;;0.80;;
3261;SDS011;1643;47.746;9.000;2023-12-22T05:25:50;2.70;;;0.93;;
3261;SDS011;1643;47.746;9.000;2023-12-22T05:28:16;0.80;;;0.80;;
3261;SDS011;1643;47.746;9.000;2023-12-22T05:30:42;4.80;;;0.90;;
3261;SDS011;1643;47.746;9.000;2023-12-22T05:33:07;1.23;;;1.00;;
3261;SDS011;1643;47.746;9.000;2023-12-22T05:35:33;1.60;;;1.00;;
3261;SDS011;1643;47.746;9.000;2023-12-22T05:37:59;1.30;;;1.00;;
3261;SDS011;1643;47.746;9.000;2023-12-22T05:40:24;2.90;;;0.90;;
3261;SDS011;1643;47.746;9.000;2023-12-22T05:42:50;3.73;;;0.70;;
3261;SDS011;1643;47.746;9.000;2023-12-22T05:45:15;1.10;;;1.00;;
3261;SDS011;1643;47.746;9.000;2023-12-22T05:47:41;1.27;;;0.97;;
3261;SDS011;1643;47.746;9.000;2023-12-22T05:50:07;7.07;;;1.33;;
3261;SDS011;1643;47.746;9.000;2023-12-22T05:52:33;5.20;;;0.90;;
3261;SDS011;1643;47.746;9.000;2023-12-22T05:54:59;2.60;;;1.17;;
3261;SDS011;1643;47.746;9.000;2023-12-22T05:57:25;1.33;;;0.80;;
3261;SDS011;1643;47.746;9.000;2023-12-22T05:59:50;1.37;;;1.20;;
3261;SDS011;1643;47.746;9.000;2023-12-22T06:02:16;2.77;;;0.80;;
3261;SDS011;1643;47.746;9.000;2023-12-22T06:04:42;1.50;;;0.87;;
3261;SDS011;1643;47.746;9.000;2023-12-22T06:07:08;1.20;;;1.10;;
3261;SDS011;1643;47.746;9.000;2023-12-22T06:09:35;1.83;;;1.37;;
3261;SDS011;1643;47.746;9.000;2023-12-22T06:12:00;1.73;;;1.00;;
3261;SDS011;1643;47.746;9.000;2023-12-22T06:14:26;2.43;;;1.23;;
3261;SDS011;1643;47.746;9.000;2023-12-22T06:16:52;2.17;;;1.20;;
3261;SDS011;1643;47.746;9.000;2023-12-22T06:19:18;2.73;;;1.07;;
3261;SDS011;1643;47.746;9.000;2023-12-22T06:21:44;1.50;;;1.00;;
3261;SDS011;1643;47.746;9.000;2023-12-22T06:24:10;3.00;;;1.20;;
3261;SDS011;1643;47.746;9.000;2023-12-22T06:26:35;1.40;;;1.20;;
3261;SDS011;1643;47.746;9.000;2023-12-22T06:29:01;4.20;;;1.53;;
3261;SDS011;1643;47.746;9.000;2023-12-22T06:31:28;4.87;;;1.20;;
3261;SDS011;1643;47.746;9.000;2023-12-22T06:33:54;3.17;;;1.37;;
3261;SDS011;1643;47.746;9.000;2023-12-22T06:36:25;4.50;;;1.40;;
3261;SDS011;1643;47.746;9.000;2023-12-22T06:38:51;3.90;;;1.73;;
3261;SDS011;1643;47.746;9.000;2023-12-22T06:43:47;4.83;;;1.30;;
3261;SDS011;1643;47.746;9.000;2023-12-22T06:46:15;6.93;;;1.63;;
3261;SDS011;1643;47.746;9.000;2023-12-22T06:48:45;3.47;;;1.50;;
3261;SDS011;1643;47.746;9.000;2023-12-22T06:51:21;3.03;;;1.53;;
3261;SDS011;1643;47.746;9.000;2023-12-22T06:53:48;3.00;;;1.37;;
3261;SDS011;1643;47.746;9.000;2023-12-22T06:56:20;3.17;;;1.70;;
3261;SDS011;1643;47.746;9.000;2023-12-22T06:58:48;4.07;;;1.60;;
3261;SDS011;1643;47.746;9.000;2023-12-22T07:01:18;8.43;;;1.47;;
3261;SDS011;1643;47.746;9.000;2023-12-22T07:03:47;6.90;;;2.17;;
3261;SDS011;1643;47.746;9.000;2023-12-22T07:06:17;3.97;;;1.90;;
3261;SDS011;1643;47.746;9.000;2023-12-22T07:11:48;6.63;;;2.17;;
3261;SDS011;1643;47.746;9.000;2023-12-22T07:14:21;10.83;;;2.53;;
3261;SDS011;1643;47.746;9.000;2023-12-22T07:16:46;4.23;;;1.67;;
3261;SDS011;1643;47.746;9.000;2023-12-22T07:19:12;5.63;;;1.97;;
3261;SDS011;1643;47.746;9.000;2023-12-22T07:21:38;9.57;;;2.33;;
3261;SDS011;1643;47.746;9.000;2023-12-22T07:24:05;5.30;;;1.83;;
3261;SDS011;1643;47.746;9.000;2023-12-22T07:26:31;5.20;;;1.57;;
3261;SDS011;1643;47.746;9.000;2023-12-22T07:28:57;6.63;;;1.67;;
3261;SDS011;1643;47.746;9.000;2023-12-22T07:31:23;6.13;;;2.00;;
3261;SDS011;1643;47.746;9.000;2023-12-22T07:33:49;4.87;;;1.77;;
3261;SDS011;1643;47.746;9.000;2023-12-22T07:36:16;8.43;;;3.00;;
3261;SDS011;1643;47.746;9.000;2023-12-22T07:38:43;2.97;;;1.50;;
3261;SDS011;1643;47.746;9.000;2023-12-22T07:41:09;9.40;;;1.80;;
3261;SDS011;1643;47.746;9.000;2023-12-22T07:43:34;4.27;;;1.43;;
3261;SDS011;1643;47.746;9.000;2023-12-22T07:46:00;5.33;;;1.63;;
3261;SDS011;1643;47.746;9.000;2023-12-22T07:48:25;2.87;;;1.30;;
3261;SDS011;1643;47.746;9.000;2023-12-22T07:50:51;5.27;;;1.93;;
3261;SDS011;1643;47.746;9.000;2023-12-22T07:53:17;4.00;;;1.37;;
3261;SDS011;1643;47.746;9.000;2023-12-22T07:55:43;4.00;;;2.77;;
3261;SDS011;1643;47.746;9.000;2023-12-22T07:58:09;6.20;;;1.50;;
3261;SDS011;1643;47.746;9.000;2023-12-22T08:00:34;2.80;;;1.40;;
3261;SDS011;1643;47.746;9.000;2023-12-22T08:03:01;3.97;;;2.00;;
3261;SDS011;1643;47.746;9.000;2023-12-22T08:05:26;5.70;;;1.40;;
3261;SDS011;1643;47.746;9.000;2023-12-22T08:07:52;9.97;;;1.73;;
3261;SDS011;1643;47.746;9.000;2023-12-22T08:10:18;4.60;;;1.80;;
3261;SDS011;1643;47.746;9.000;2023-12-22T08:12:44;6.20;;;1.87;;
3261;SDS011;1643;47.746;9.000;2023-12-22T08:15:10;8.20;;;1.87;;
3261;SDS011;1643;47.746;9.000;2023-12-22T08:17:35;3.50;;;1.60;;
3261;SDS011;1643;47.746;9.000;2023-12-22T08:20:03;5.70;;;2.47;;
3261;SDS011;1643;47.746;9.000;2023-12-22T08:22:29;3.73;;;1.93;;
3261;SDS011;1643;47.746;9.000;2023-12-22T08:24:54;6.37;;;1.60;;
3261;SDS011;1643;47.746;9.000;2023-12-22T08:27:20;4.40;;;1.73;;
3261;SDS011;1643;47.746;9.000;2023-12-22T08:29:46;3.63;;;1.37;;
3261;SDS011;1643;47.746;9.000;2023-12-22T08:32:11;6.17;;;1.50;;
3261;SDS011;1643;47.746;9.000;2023-12-22T08:34:37;4.83;;;2.10;;
3261;SDS011;1643;47.746;9.000;2023-12-22T08:37:03;5.37;;;1.90;;
3261;SDS011;1643;47.746;9.000;2023-12-22T08:39:29;4.83;;;1.70;;
3261;SDS011;1643;47.746;9.000;2023-12-22T08:41:54;3.90;;;1.70;;
3261;SDS011;1643;47.746;9.000;2023-12-22T08:44:20;5.10;;;2.30;;
3261;SDS011;1643;47.746;9.000;2023-12-22T08:46:46;9.13;;;3.40;;
3261;SDS011;1643;47.746;9.000;2023-12-22T08:49:11;4.83;;;1.80;;
3261;SDS011;1643;47.746;9.000;2023-12-22T08:51:37;7.20;;;2.23;;
3261;SDS011;1643;47.746;9.000;2023-12-22T08:54:02;3.83;;;2.47;;
3261;SDS011;1643;47.746;9.000;2023-12-22T08:56:31;5.43;;;2.33;;
3261;SDS011;1643;47.746;9.000;2023-12-22T08:58:57;4.40;;;2.20;;
3261;SDS011;1643;47.746;9.000;2023-12-22T09:01:25;5.63;;;2.00;;
3261;SDS011;1643;47.746;9.000;2023-12-22T09:03:51;5.47;;;2.03;;
3261;SDS011;1643;47.746;9.000;2023-12-22T09:06:18;8.33;;;2.10;;
3261;SDS011;1643;47.746;9.000;2023-12-22T09:08:47;5.33;;;2.13;;
3261;SDS011;1643;47.746;9.000;2023-12-22T09:11:15;4.73;;;2.00;;
3261;SDS011;1643;47.746;9.000;2023-12-22T09:13:42;6.03;;;1.70;;
3261;SDS011;1643;47.746;9.000;2023-12-22T09:16:08;3.60;;;1.97;;
3261;SDS011;1643;47.746;9.000;2023-12-22T09:18:34;4.43;;;1.60;;
3261;SDS011;1643;47.746;9.000;2023-12-22T09:21:01;7.37;;;1.77;;
3261;SDS011;1643;47.746;9.000;2023-12-22T09:23:27;4.50;;;2.30;;
3261;SDS011;1643;47.746;9.000;2023-12-22T09:25:53;6.67;;;1.60;;
3261;SDS011;1643;47.746;9.000;2023-12-22T09:28:19;2.53;;;1.50;;
3261;SDS011;1643;47.746;9.000;2023-12-22T09:30:45;5.03;;;1.80;;
3261;SDS011;1643;47.746;9.000;2023-12-22T09:33:11;7.33;;;2.37;;
3261;SDS011;1643;47.746;9.000;2023-12-22T09:35:37;1.83;;;1.30;;
3261;SDS011;1643;47.746;9.000;2023-12-22T09:38:06;4.90;;;1.83;;
3261;SDS011;1643;47.746;9.000;2023-12-22T09:40:32;3.90;;;1.60;;
3261;SDS011;1643;47.746;9.000;2023-12-22T09:43:00;4.87;;;1.50;;
3261;SDS011;1643;47.746;9.000;2023-12-22T09:45:27;4.87;;;2.40;;
3261;SDS011;1643;47.746;9.000;2023-12-22T09:47:55;4.13;;;1.43;;
3261;SDS011;1643;47.746;9.000;2023-12-22T09:50:22;7.07;;;2.00;;
3261;SDS011;1643;47.746;9.000;2023-12-22T09:52:49;5.60;;;1.63;;
3261;SDS011;1643;47.746;9.000;2023-12-22T09:55:15;4.60;;;1.83;;
3261;SDS011;1643;47.746;9.000;2023-12-22T09:57:42;6.53;;;2.23;;
3261;SDS011;1643;47.746;9.000;2023-12-22T10:00:09;5.50;;;1.50;;
3261;SDS011;1643;47.746;9.000;2023-12-22T10:02:37;5.10;;;2.00;;
3261;SDS011;1643;47.746;9.000;2023-12-22T10:05:04;6.83;;;2.03;;
3261;SDS011;1643;47.746;9.000;2023-12-22T10:07:30;11.60;;;2.70;;
3261;SDS011;1643;47.746;9.000;2023-12-22T10:09:57;8.47;;;2.40;;
3261;SDS011;1643;47.746;9.000;2023-12-22T10:12:24;8.80;;;2.30;;
3261;SDS011;1643;47.746;9.000;2023-12-22T10:14:55;6.80;;;2.03;;
3261;SDS011;1643;47.746;9.000;2023-12-22T10:17:24;4.30;;;1.40;;
3261;SDS011;1643;47.746;9.000;2023-12-22T10:19:50;8.23;;;1.90;;
3261;SDS011;1643;47.746;9.000;2023-12-22T10:22:15;6.43;;;2.03;;
3261;SDS011;1643;47.746;9.000;2023-12-22T10:27:12;6.83;;;1.70;;
3261;SDS011;1643;47.746;9.000;2023-12-22T10:29:38;11.63;;;2.50;;
3261;SDS011;1643;47.746;9.000;2023-12-22T10:32:05;5.70;;;2.07;;
3261;SDS011;1643;47.746;9.000;2023-12-22T10:34:31;4.37;;;1.83;;
3261;SDS011;1643;47.746;9.000;2023-12-22T10:37:00;6.50;;;2.67;;
3261;SDS011;1643;47.746;9.000;2023-12-22T10:39:26;6.20;;;2.53;;
3261;SDS011;1643;47.746;9.000;2023-12-22T10:41:56;6.70;;;2.40;;
3261;SDS011;1643;47.746;9.000;2023-12-22T10:44:26;5.80;;;2.20;;
3261;SDS011;1643;47.746;9.000;2023-12-22T10:46:53;8.30;;;2.50;;
3261;SDS011;1643;47.746;9.000;2023-12-22T10:49:20;8.53;;;2.97;;
3261;SDS011;1643;47.746;9.000;2023-12-22T10:51:46;10.00;;;2.20;;
3261;SDS011;1643;47.746;9.000;2023-12-22T10:54:11;4.07;;;2.40;;
3261;SDS011;1643;47.746;9.000;2023-12-22T10:56:38;12.40;;;2.17;;
3261;SDS011;1643;47.746;9.000;2023-12-22T10:59:05;3.43;;;1.87;;
3261;SDS011;1643;47.746;9.000;2023-12-22T11:01:35;5.30;;;1.87;;
3261;SDS011;1643;47.746;9.000;2023-12-22T11:04:05;3.90;;;2.07;;
3261;SDS011;1643;47.746;9.000;2023-12-22T11:06:36;12.47;;;2.23;;
3261;SDS011;1643;47.746;9.000;2023-12-22T11:09:06;2.53;;;1.57;;
3261;SDS011;1643;47.746;9.000;2023-12-22T11:11:39;3.53;;;1.67;;
3261;SDS011;1643;47.746;9.000;2023-12-22T11:14:06;5.90;;;1.93;;
3261;SDS011;1643;47.746;9.000;2023-12-22T11:16:33;4.83;;;2.20;;
3261;SDS011;1643;47.746;9.000;2023-12-22T11:19:00;3.20;;;1.50;;
3261;SDS011;1643;47.746;9.000;2023-12-22T11:21:27;7.90;;;2.33;;
3261;SDS011;1643;47.746;9.000;2023-12-22T11:23:54;3.60;;;1.50;;
3261;SDS011;1643;47.746;9.000;2023-12-22T11:26:21;2.77;;;1.60;;
3261;SDS011;1643;47.746;9.000;2023-12-22T11:28:48;6.23;;;1.70;;
3261;SDS011;1643;47.746;9.000;2023-12-22T11:31:15;3.80;;;2.03;;
3261;SDS011;1643;47.746;9.000;2023-12-22T11:33:46;5.57;;;1.30;;
3261;SDS011;1643;47.746;9.000;2023-12-22T11:36:15;3.80;;;1.37;;
3261;SDS011;1643;47.746;9.000;2023-12-22T11:38:41;4.80;;;1.60;;
3261;SDS011;1643;47.746;9.000;2023-12-22T11:41:09;4.30;;;1.60;;
3261;SDS011;1643;47.746;9.000;2023-12-22T11:43:39;4.87;;;1.43;;
3261;SDS011;1643;47.746;9.000;2023-12-22T11:46:06;2.67;;;1.47;;
3261;SDS011;1643;47.746;9.000;2023-12-22T11:48:33;5.57;;;1.30;;
3261;SDS011;1643;47.746;9.000;2023-12-22T11:50:59;4.23;;;1.50;;
3261;SDS011;1643;47.746;9.000;2023-12-22T11:53:29;2.80;;;1.20;;
3261;SDS011;1643;47.746;9.000;2023-12-22T11:56:07;6.57;;;1.60;;
3261;SDS011;1643;47.746;9.000;2023-12-22T12:01:20;2.57;;;1.57;;
3261;SDS011;1643;47.746;9.000;2023-12-22T12:03:50;2.03;;;1.10;;
3261;SDS011;1643;47.746;9.000;2023-12-22T12:06:38;2.10;;;1.00;;
3261;SDS011;1643;47.746;9.000;2023-12-22T12:09:04;0.80;;;0.80;;
3261;SDS011;1643;47.746;9.000;2023-12-22T12:14:31;4.30;;;0.80;;
3261;SDS011;1643;47.746;9.000;2023-12-22T12:17:00;1.77;;;1.20;;
3261;SDS011;1643;47.746;9.000;2023-12-22T12:19:34;3.73;;;1.83;;
3261;SDS011;1643;47.746;9.000;2023-12-22T12:22:00;4.33;;;1.20;;
3261;SDS011;1643;47.746;9.000;2023-12-22T12:24:26;1.77;;;1.27;;
3261;SDS011;1643;47.746;9.000;2023-12-22T12:26:52;1.57;;;1.10;;
3261;SDS011;1643;47.746;9.000;2023-12-22T12:29:18;1.73;;;1.00;;
3261;SDS011;1643;47.746;9.000;2023-12-22T12:31:45;2.50;;;1.13;;
3261;SDS011;1643;47.746;9.000;2023-12-22T12:34:11;3.20;;;1.10;;
3261;SDS011;1643;47.746;9.000;2023-12-22T12:36:39;2.03;;;1.10;;
3261;SDS011;1643;47.746;9.000;2023-12-22T12:39:06;2.60;;;1.10;;
3261;SDS011;1643;47.746;9.000;2023-12-22T12:41:35;2.90;;;1.10;;
3261;SDS011;1643;47.746;9.000;2023-12-22T12:44:05;2.20;;;1.00;;
3261;SDS011;1643;47.746;9.000;2023-12-22T12:46:35;1.33;;;0.97;;
3261;SDS011;1643;47.746;9.000;2023-12-22T12:49:02;2.63;;;0.90;;
3261;SDS011;1643;47.746;9.000;2023-12-22T12:51:35;4.80;;;1.10;;
3261;SDS011;1643;47.746;9.000;2023-12-22T12:54:03;1.00;;;0.90;;
3261;SDS011;1643;47.746;9.000;2023-12-22T12:56:28;2.93;;;1.00;;
3261;SDS011;1643;47.746;9.000;2023-12-22T12:58:54;1.20;;;1.00;;
3261;SDS011;1643;47.746;9.000;2023-12-22T13:01:20;1.63;;;1.10;;
3261;SDS011;1643;47.746;9.000;2023-12-22T13:03:55;3.50;;;0.80;;
3261;SDS011;1643;47.746;9.000;2023-12-22T13:06:21;1.23;;;0.87;;
3261;SDS011;1643;47.746;9.000;2023-12-22T13:08:50;2.37;;;1.00;;
3261;SDS011;1643;47.746;9.000;2023-12-22T13:11:23;1.00;;;0.70;;
3261;SDS011;1643;47.746;9.000;2023-12-22T13:13:51;3.90;;;1.10;;
3261;SDS011;1643;47.746;9.000;2023-12-22T13:16:17;2.07;;;0.80;;
3261;SDS011;1643;47.746;9.000;2023-12-22T13:18:59;1.90;;;0.90;;
3261;SDS011;1643;47.746;9.000;2023-12-22T13:21:25;1.90;;;0.87;;
3261;SDS011;1643;47.746;9.000;2023-12-22T13:26:37;0.80;;;0.80;;
3261;SDS011;1643;47.746;9.000;2023-12-22T13:29:03;1.83;;;1.03;;
3261;SDS011;1643;47.746;9.000;2023-12-22T13:31:32;1.23;;;1.03;;
3261;SDS011;1643;47.746;9.000;2023-12-22T13:33:59;0.67;;;0.63;;
3261;SDS011;1643;47.746;9.000;2023-12-22T13:36:25;3.97;;;0.93;;
3261;SDS011;1643;47.746;9.000;2023-12-22T13:38:51;3.13;;;0.83;;
3261;SDS011;1643;47.746;9.000;2023-12-22T13:41:17;0.60;;;0.60;;
3261;SDS011;1643;47.746;9.000;2023-12-22T13:43:43;0.60;;;0.60;;
3261;SDS011;1643;47.746;9.000;2023-12-22T13:46:12;2.50;;;0.80;;
3261;SDS011;1643;47.746;9.000;2023-12-22T13:48:39;0.60;;;0.60;;
3261;SDS011;1643;47.746;9.000;2023-12-22T13:51:05;0.70;;;0.70;;
3261;SDS011;1643;47.746;9.000;2023-12-22T13:53:31;2.40;;;1.00;;
3261;SDS011;1643;47.746;9.000;2023-12-22T13:56:00;0.80;;;0.70;;
3261;SDS011;1643;47.746;9.000;2023-12-22T13:58:25;0.80;;;0.80;;
3261;SDS011;1643;47.746;9.000;2023-12-22T14:00:52;0.60;;;0.60;;
3261;SDS011;1643;47.746;9.000;2023-12-22T14:03:18;0.60;;;0.60;;
3261;SDS011;1643;47.746;9.000;2023-12-22T14:05:48;1.00;;;0.80;;
3261;SDS011;1643;47.746;9.000;2023-12-22T14:08:14;0.60;;;0.60;;
3261;SDS011;1643;47.746;9.000;2023-12-22T14:10:46;0.70;;;0.70;;
3261;SDS011;1643;47.746;9.000;2023-12-22T14:13:12;0.90;;;0.70;;
3261;SDS011;1643;47.746;9.000;2023-12-22T14:15:38;0.90;;;0.80;;
3261;SDS011;1643;47.746;9.000;2023-12-22T14:18:04;0.60;;;0.60;;
3261;SDS011;1643;47.746;9.000;2023-12-22T14:20:30;1.37;;;0.87;;
3261;SDS011;1643;47.746;9.000;2023-12-22T14:22:55;0.63;;;0.60;;
3261;SDS011;1643;47.746;9.000;2023-12-22T14:25:21;0.60;;;0.60;;
3261;SDS011;1643;47.746;9.000;2023-12-22T14:27:47;2.60;;;0.80;;
3261;SDS011;1643;47.746;9.000;2023-12-22T14:30:12;1.53;;;0.67;;
3261;SDS011;1643;47.746;9.000;2023-12-22T14:32:38;0.90;;;0.63;;
3261;SDS011;1643;47.746;9.000;2023-12-22T14:35:04;0.70;;;0.70;;
3261;SDS011;1643;47.746;9.000;2023-12-22T14:37:30;1.30;;;0.80;;
3261;SDS011;1643;47.746;9.000;2023-12-22T14:39:55;0.80;;;0.80;;
3261;SDS011;1643;47.746;9.000;2023-12-22T14:42:21;0.60;;;0.60;;
3261;SDS011;1643;47.746;9.000;2023-12-22T14:44:47;0.73;;;0.70;;
3261;SDS011;1643;47.746;9.000;2023-12-22T14:47:13;0.63;;;0.60;;
3261;SDS011;1643;47.746;9.000;2023-12-22T14:49:39;0.80;;;0.60;;
3261;SDS011;1643;47.746;9.000;2023-12-22T14:52:04;0.70;;;0.70;;
3261;SDS011;1643;47.746;9.000;2023-12-22T14:54:30;0.70;;;0.70;;
3261;SDS011;1643;47.746;9.000;2023-12-22T14:56:56;0.63;;;0.63;;
3261;SDS011;1643;47.746;9.000;2023-12-22T14:59:21;1.00;;;0.70;;
3261;SDS011;1643;47.746;9.000;2023-12-22T15:01:47;0.70;;;0.70;;
3261;SDS011;1643;47.746;9.000;2023-12-22T15:04:13;1.50;;;0.90;;
3261;SDS011;1643;47.746;9.000;2023-12-22T15:06:39;0.80;;;0.70;;
3261;SDS011;1643;47.746;9.000;2023-12-22T15:09:06;0.70;;;0.60;;
3261;SDS011;1643;47.746;9.000;2023-12-22T15:11:32;1.17;;;0.80;;
3261;SDS011;1643;47.746;9.000;2023-12-22T15:13:58;0.70;;;0.70;;
3261;SDS011;1643;47.746;9.000;2023-12-22T15:16:25;0.77;;;0.70;;
3261;SDS011;1643;47.746;9.000;2023-12-22T15:18:51;1.00;;;0.60;;
3261;SDS011;1643;47.746;9.000;2023-12-22T15:21:20;0.70;;;0.70;;
3261;SDS011;1643;47.746;9.000;2023-12-22T15:23:49;1.00;;;0.80;;
3261;SDS011;1643;47.746;9.000;2023-12-22T15:26:22;0.87;;;0.77;;
3261;SDS011;1643;47.746;9.000;2023-12-22T15:28:50;0.90;;;0.70;;
3261;SDS011;1643;47.746;9.000;2023-12-22T15:31:16;1.00;;;0.80;;